sensor_id;sensor_type;location;lat;lon;timestamp;P1;durP1;ratioP1;P2;durP2;ratioP2
21754;SDS011;11039;50.028;19.938;2023-04-08T00:01:11;15.95;;;9.82;;
21754;SDS011;11039;50.028;19.938;2023-04-08T00:03:37;16.08;;;9.90;;
21754;SDS011;11039;50.028;19.938;2023-04-08T00:06:03;18.08;;;10.43;;
21754;SDS011;11039;50.028;19.938;2023-04-08T00:08:29;16.35;;;10.25;;
21754;SDS011;11039;50.028;19.938;2023-04-08T00:10:55;14.18;;;9.68;;
21754;SDS011;11039;50.028;19.938;2023-04-08T00:13:21;15.57;;;10.00;;
21754;SDS011;11039;50.028;19.938;2023-04-08T00:15:47;13.40;;;9.40;;
21754;SDS011;11039;50.028;19.938;2023-04-08T00:18:13;13.57;;;9.77;;
21754;SDS011;11039;50.028;19.938;2023-04-08T00:20:41;15.05;;;9.75;;
21754;SDS011;11039;50.028;19.938;2023-04-08T00:23:07;15.38;;;10.18;;
21754;SDS011;11039;50.028;19.938;2023-04-08T00:25:33;13.43;;;9.85;;
21754;SDS011;11039;50.028;19.938;2023-04-08T00:27:59;13.23;;;9.57;;
21754;SDS011;11039;50.028;19.938;2023-04-08T00:30:25;14.30;;;10.18;;
21754;SDS011;11039;50.028;19.938;2023-04-08T00:32:52;14.68;;;10.00;;
21754;SDS011;11039;50.028;19.938;2023-04-08T00:35:18;14.07;;;10.10;;
21754;SDS011;11039;50.028;19.938;2023-04-08T00:37:44;14.27;;;9.85;;
21754;SDS011;11039;50.028;19.938;2023-04-08T00:40:10;14.32;;;10.32;;
21754;SDS011;11039;50.028;19.938;2023-04-08T00:42:37;13.80;;;10.00;;
21754;SDS011;11039;50.028;19.938;2023-04-08T00:45:03;13.60;;;9.50;;
21754;SDS011;11039;50.028;19.938;2023-04-08T00:47:29;12.90;;;9.48;;
21754;SDS011;11039;50.028;19.938;2023-04-08T00:49:55;12.15;;;9.40;;
21754;SDS011;11039;50.028;19.938;2023-04-08T00:52:21;11.55;;;8.77;;
21754;SDS011;11039;50.028;19.938;2023-04-08T00:54:47;12.48;;;9.15;;
21754;SDS011;11039;50.028;19.938;2023-04-08T00:57:13;13.27;;;9.55;;
21754;SDS011;11039;50.028;19.938;2023-04-08T00:59:40;13.23;;;9.60;;
21754;SDS011;11039;50.028;19.938;2023-04-08T01:02:11;11.77;;;9.35;;
21754;SDS011;11039;50.028;19.938;2023-04-08T01:04:48;12.60;;;9.50;;
21754;SDS011;11039;50.028;19.938;2023-04-08T01:09:56;13.23;;;9.80;;
21754;SDS011;11039;50.028;19.938;2023-04-08T01:12:24;12.77;;;9.80;;
21754;SDS011;11039;50.028;19.938;2023-04-08T01:15:03;11.68;;;9.18;;
21754;SDS011;11039;50.028;19.938;2023-04-08T01:17:30;14.52;;;9.63;;
21754;SDS011;11039;50.028;19.938;2023-04-08T01:19:59;13.85;;;9.65;;
21754;SDS011;11039;50.028;19.938;2023-04-08T01:25:19;13.38;;;9.70;;
21754;SDS011;11039;50.028;19.938;2023-04-08T01:27:46;12.55;;;9.18;;
21754;SDS011;11039;50.028;19.938;2023-04-08T01:30:13;14.27;;;9.73;;
21754;SDS011;11039;50.028;19.938;2023-04-08T01:32:39;12.20;;;9.48;;
21754;SDS011;11039;50.028;19.938;2023-04-08T01:35:06;13.18;;;8.88;;
21754;SDS011;11039;50.028;19.938;2023-04-08T01:37:32;11.35;;;9.15;;
21754;SDS011;11039;50.028;19.938;2023-04-08T01:39:59;13.43;;;10.32;;
21754;SDS011;11039;50.028;19.938;2023-04-08T01:42:26;12.30;;;9.27;;
21754;SDS011;11039;50.028;19.938;2023-04-08T01:44:54;14.15;;;9.48;;
21754;SDS011;11039;50.028;19.938;2023-04-08T01:47:20;11.50;;;9.27;;
21754;SDS011;11039;50.028;19.938;2023-04-08T01:49:47;13.45;;;9.35;;
21754;SDS011;11039;50.028;19.938;2023-04-08T01:52:14;12.13;;;9.40;;
21754;SDS011;11039;50.028;19.938;2023-04-08T01:54:41;11.85;;;9.70;;
21754;SDS011;11039;50.028;19.938;2023-04-08T01:57:07;12.25;;;9.98;;
21754;SDS011;11039;50.028;19.938;2023-04-08T01:59:36;12.43;;;9.82;;
21754;SDS011;11039;50.028;19.938;2023-04-08T02:02:04;11.98;;;9.43;;
21754;SDS011;11039;50.028;19.938;2023-04-08T02:04:32;12.82;;;9.48;;
21754;SDS011;11039;50.028;19.938;2023-04-08T02:06:58;11.18;;;8.63;;
21754;SDS011;11039;50.028;19.938;2023-04-08T02:09:25;12.90;;;10.00;;
21754;SDS011;11039;50.028;19.938;2023-04-08T02:11:52;12.48;;;9.98;;
21754;SDS011;11039;50.028;19.938;2023-04-08T02:14:18;11.93;;;9.50;;
21754;SDS011;11039;50.028;19.938;2023-04-08T02:16:52;12.20;;;9.40;;
21754;SDS011;11039;50.028;19.938;2023-04-08T02:19:26;11.63;;;9.15;;
21754;SDS011;11039;50.028;19.938;2023-04-08T02:21:56;12.07;;;9.35;;
21754;SDS011;11039;50.028;19.938;2023-04-08T02:24:22;12.07;;;9.50;;
21754;SDS011;11039;50.028;19.938;2023-04-08T02:26:50;12.85;;;9.57;;
21754;SDS011;11039;50.028;19.938;2023-04-08T02:29:16;12.40;;;9.68;;
21754;SDS011;11039;50.028;19.938;2023-04-08T02:31:43;12.35;;;9.82;;
21754;SDS011;11039;50.028;19.938;2023-04-08T02:34:10;11.68;;;9.93;;
21754;SDS011;11039;50.028;19.938;2023-04-08T02:36:36;11.35;;;9.35;;
21754;SDS011;11039;50.028;19.938;2023-04-08T02:39:03;12.70;;;9.65;;
21754;SDS011;11039;50.028;19.938;2023-04-08T02:41:29;11.88;;;9.75;;
21754;SDS011;11039;50.028;19.938;2023-04-08T02:43:55;13.18;;;9.48;;
21754;SDS011;11039;50.028;19.938;2023-04-08T02:46:22;13.30;;;9.82;;
21754;SDS011;11039;50.028;19.938;2023-04-08T02:48:48;13.25;;;9.80;;
21754;SDS011;11039;50.028;19.938;2023-04-08T02:51:14;12.73;;;9.88;;
21754;SDS011;11039;50.028;19.938;2023-04-08T02:53:40;11.77;;;9.25;;
21754;SDS011;11039;50.028;19.938;2023-04-08T02:56:09;13.10;;;9.63;;
21754;SDS011;11039;50.028;19.938;2023-04-08T02:58:35;10.98;;;9.02;;
21754;SDS011;11039;50.028;19.938;2023-04-08T03:01:01;12.05;;;9.20;;
21754;SDS011;11039;50.028;19.938;2023-04-08T03:03:27;11.40;;;9.32;;
21754;SDS011;11039;50.028;19.938;2023-04-08T03:05:54;10.77;;;9.27;;
21754;SDS011;11039;50.028;19.938;2023-04-08T03:08:21;12.43;;;9.55;;
21754;SDS011;11039;50.028;19.938;2023-04-08T03:10:47;12.82;;;9.88;;
21754;SDS011;11039;50.028;19.938;2023-04-08T03:13:14;11.70;;;9.40;;
21754;SDS011;11039;50.028;19.938;2023-04-08T03:15:40;10.63;;;9.02;;
21754;SDS011;11039;50.028;19.938;2023-04-08T03:18:06;11.50;;;8.85;;
21754;SDS011;11039;50.028;19.938;2023-04-08T03:20:32;11.88;;;9.63;;
21754;SDS011;11039;50.028;19.938;2023-04-08T03:22:58;11.13;;;9.15;;
21754;SDS011;11039;50.028;19.938;2023-04-08T03:25:24;12.07;;;9.68;;
21754;SDS011;11039;50.028;19.938;2023-04-08T03:27:51;11.50;;;9.23;;
21754;SDS011;11039;50.028;19.938;2023-04-08T03:30:17;11.98;;;9.23;;
21754;SDS011;11039;50.028;19.938;2023-04-08T03:32:43;13.15;;;9.32;;
21754;SDS011;11039;50.028;19.938;2023-04-08T03:35:09;11.18;;;9.23;;
21754;SDS011;11039;50.028;19.938;2023-04-08T03:37:35;12.45;;;9.55;;
21754;SDS011;11039;50.028;19.938;2023-04-08T03:40:01;11.88;;;9.73;;
21754;SDS011;11039;50.028;19.938;2023-04-08T03:42:27;11.93;;;9.20;;
21754;SDS011;11039;50.028;19.938;2023-04-08T03:44:53;10.80;;;8.80;;
21754;SDS011;11039;50.028;19.938;2023-04-08T03:47:19;12.32;;;9.35;;
21754;SDS011;11039;50.028;19.938;2023-04-08T03:49:45;11.93;;;8.90;;
21754;SDS011;11039;50.028;19.938;2023-04-08T03:52:12;10.45;;;8.70;;
21754;SDS011;11039;50.028;19.938;2023-04-08T03:54:38;9.63;;;8.40;;
21754;SDS011;11039;50.028;19.938;2023-04-08T03:57:04;11.93;;;8.95;;
21754;SDS011;11039;50.028;19.938;2023-04-08T03:59:30;11.98;;;9.05;;
21754;SDS011;11039;50.028;19.938;2023-04-08T04:01:57;11.00;;;9.18;;
21754;SDS011;11039;50.028;19.938;2023-04-08T04:04:23;10.95;;;9.10;;
21754;SDS011;11039;50.028;19.938;2023-04-08T04:06:50;10.30;;;8.43;;
21754;SDS011;11039;50.028;19.938;2023-04-08T04:09:16;10.15;;;8.48;;
21754;SDS011;11039;50.028;19.938;2023-04-08T04:11:42;11.82;;;9.00;;
21754;SDS011;11039;50.028;19.938;2023-04-08T04:14:08;10.98;;;8.38;;
21754;SDS011;11039;50.028;19.938;2023-04-08T04:16:34;9.30;;;8.05;;
21754;SDS011;11039;50.028;19.938;2023-04-08T04:19:00;10.70;;;8.80;;
21754;SDS011;11039;50.028;19.938;2023-04-08T04:21:26;9.57;;;7.85;;
21754;SDS011;11039;50.028;19.938;2023-04-08T04:23:52;9.75;;;7.80;;
21754;SDS011;11039;50.028;19.938;2023-04-08T04:26:18;9.52;;;8.02;;
21754;SDS011;11039;50.028;19.938;2023-04-08T04:28:45;10.10;;;8.00;;
21754;SDS011;11039;50.028;19.938;2023-04-08T04:31:21;9.93;;;7.90;;
21754;SDS011;11039;50.028;19.938;2023-04-08T04:33:48;10.10;;;8.60;;
21754;SDS011;11039;50.028;19.938;2023-04-08T04:36:14;9.77;;;8.63;;
21754;SDS011;11039;50.028;19.938;2023-04-08T04:38:40;9.43;;;7.93;;
21754;SDS011;11039;50.028;19.938;2023-04-08T04:41:10;9.95;;;8.15;;
21754;SDS011;11039;50.028;19.938;2023-04-08T04:43:36;9.93;;;8.07;;
21754;SDS011;11039;50.028;19.938;2023-04-08T04:46:02;9.60;;;7.78;;
21754;SDS011;11039;50.028;19.938;2023-04-08T04:48:31;9.15;;;8.02;;
21754;SDS011;11039;50.028;19.938;2023-04-08T04:50:57;9.88;;;7.63;;
21754;SDS011;11039;50.028;19.938;2023-04-08T04:53:25;8.57;;;7.30;;
21754;SDS011;11039;50.028;19.938;2023-04-08T04:55:51;9.98;;;7.78;;
21754;SDS011;11039;50.028;19.938;2023-04-08T04:58:17;9.50;;;7.68;;
21754;SDS011;11039;50.028;19.938;2023-04-08T05:00:43;10.00;;;7.72;;
21754;SDS011;11039;50.028;19.938;2023-04-08T05:03:10;9.05;;;7.70;;
21754;SDS011;11039;50.028;19.938;2023-04-08T05:05:37;9.15;;;7.82;;
21754;SDS011;11039;50.028;19.938;2023-04-08T05:08:03;7.93;;;7.05;;
21754;SDS011;11039;50.028;19.938;2023-04-08T05:10:29;8.75;;;7.22;;
21754;SDS011;11039;50.028;19.938;2023-04-08T05:12:55;8.50;;;7.13;;
21754;SDS011;11039;50.028;19.938;2023-04-08T05:15:21;9.27;;;7.97;;
21754;SDS011;11039;50.028;19.938;2023-04-08T05:17:47;9.98;;;7.43;;
21754;SDS011;11039;50.028;19.938;2023-04-08T05:20:13;8.80;;;7.25;;
21754;SDS011;11039;50.028;19.938;2023-04-08T05:22:39;9.40;;;7.35;;
21754;SDS011;11039;50.028;19.938;2023-04-08T05:25:06;8.90;;;7.85;;
21754;SDS011;11039;50.028;19.938;2023-04-08T05:27:32;8.98;;;7.30;;
21754;SDS011;11039;50.028;19.938;2023-04-08T05:29:59;8.68;;;7.22;;
21754;SDS011;11039;50.028;19.938;2023-04-08T05:32:25;8.45;;;7.15;;
21754;SDS011;11039;50.028;19.938;2023-04-08T05:34:52;8.73;;;7.18;;
21754;SDS011;11039;50.028;19.938;2023-04-08T05:37:18;9.15;;;7.13;;
21754;SDS011;11039;50.028;19.938;2023-04-08T05:39:44;8.93;;;6.78;;
21754;SDS011;11039;50.028;19.938;2023-04-08T05:42:10;8.07;;;6.97;;
21754;SDS011;11039;50.028;19.938;2023-04-08T05:44:37;8.20;;;6.85;;
21754;SDS011;11039;50.028;19.938;2023-04-08T05:47:05;8.32;;;7.00;;
21754;SDS011;11039;50.028;19.938;2023-04-08T05:49:32;9.02;;;7.32;;
21754;SDS011;11039;50.028;19.938;2023-04-08T05:51:58;8.55;;;6.80;;
21754;SDS011;11039;50.028;19.938;2023-04-08T05:54:24;7.95;;;6.60;;
21754;SDS011;11039;50.028;19.938;2023-04-08T05:56:50;7.70;;;6.72;;
21754;SDS011;11039;50.028;19.938;2023-04-08T05:59:16;8.18;;;6.90;;
21754;SDS011;11039;50.028;19.938;2023-04-08T06:01:42;8.68;;;7.25;;
21754;SDS011;11039;50.028;19.938;2023-04-08T06:04:08;8.73;;;7.15;;
21754;SDS011;11039;50.028;19.938;2023-04-08T06:06:36;7.80;;;6.53;;
21754;SDS011;11039;50.028;19.938;2023-04-08T06:09:05;8.15;;;6.97;;
21754;SDS011;11039;50.028;19.938;2023-04-08T06:11:31;7.55;;;6.50;;
21754;SDS011;11039;50.028;19.938;2023-04-08T06:13:57;7.68;;;5.95;;
21754;SDS011;11039;50.028;19.938;2023-04-08T06:16:23;8.23;;;6.80;;
21754;SDS011;11039;50.028;19.938;2023-04-08T06:18:49;8.13;;;6.22;;
21754;SDS011;11039;50.028;19.938;2023-04-08T06:21:15;8.15;;;6.20;;
21754;SDS011;11039;50.028;19.938;2023-04-08T06:23:42;6.88;;;6.10;;
21754;SDS011;11039;50.028;19.938;2023-04-08T06:26:08;8.20;;;6.53;;
21754;SDS011;11039;50.028;19.938;2023-04-08T06:28:34;7.97;;;6.40;;
21754;SDS011;11039;50.028;19.938;2023-04-08T06:31:00;8.43;;;6.50;;
21754;SDS011;11039;50.028;19.938;2023-04-08T06:33:26;7.20;;;6.20;;
21754;SDS011;11039;50.028;19.938;2023-04-08T06:36:00;8.13;;;6.70;;
21754;SDS011;11039;50.028;19.938;2023-04-08T06:38:26;7.57;;;6.28;;
21754;SDS011;11039;50.028;19.938;2023-04-08T06:40:52;7.65;;;6.28;;
21754;SDS011;11039;50.028;19.938;2023-04-08T06:43:18;7.18;;;6.07;;
21754;SDS011;11039;50.028;19.938;2023-04-08T06:45:44;6.43;;;5.72;;
21754;SDS011;11039;50.028;19.938;2023-04-08T06:48:10;6.90;;;6.15;;
21754;SDS011;11039;50.028;19.938;2023-04-08T06:50:36;6.82;;;5.80;;
21754;SDS011;11039;50.028;19.938;2023-04-08T06:53:02;7.47;;;5.65;;
21754;SDS011;11039;50.028;19.938;2023-04-08T06:55:28;6.57;;;5.70;;
21754;SDS011;11039;50.028;19.938;2023-04-08T06:57:54;6.20;;;5.28;;
21754;SDS011;11039;50.028;19.938;2023-04-08T07:00:20;6.15;;;5.55;;
21754;SDS011;11039;50.028;19.938;2023-04-08T07:02:46;7.07;;;5.68;;
21754;SDS011;11039;50.028;19.938;2023-04-08T07:05:12;6.30;;;5.35;;
21754;SDS011;11039;50.028;19.938;2023-04-08T07:07:38;6.90;;;5.78;;
21754;SDS011;11039;50.028;19.938;2023-04-08T07:10:05;6.00;;;5.32;;
21754;SDS011;11039;50.028;19.938;2023-04-08T07:12:31;6.65;;;5.40;;
21754;SDS011;11039;50.028;19.938;2023-04-08T07:14:57;6.35;;;5.45;;
21754;SDS011;11039;50.028;19.938;2023-04-08T07:17:23;6.05;;;5.38;;
21754;SDS011;11039;50.028;19.938;2023-04-08T07:19:49;7.05;;;5.53;;
21754;SDS011;11039;50.028;19.938;2023-04-08T07:22:15;5.65;;;4.90;;
21754;SDS011;11039;50.028;19.938;2023-04-08T07:24:41;5.63;;;5.05;;
21754;SDS011;11039;50.028;19.938;2023-04-08T07:27:09;6.25;;;5.43;;
21754;SDS011;11039;50.028;19.938;2023-04-08T07:29:35;6.22;;;5.45;;
21754;SDS011;11039;50.028;19.938;2023-04-08T07:32:01;5.78;;;5.07;;
21754;SDS011;11039;50.028;19.938;2023-04-08T07:34:27;6.57;;;5.30;;
21754;SDS011;11039;50.028;19.938;2023-04-08T07:36:53;5.60;;;4.88;;
21754;SDS011;11039;50.028;19.938;2023-04-08T07:39:19;6.20;;;5.25;;
21754;SDS011;11039;50.028;19.938;2023-04-08T07:41:45;5.75;;;5.15;;
21754;SDS011;11039;50.028;19.938;2023-04-08T07:44:11;6.18;;;5.10;;
21754;SDS011;11039;50.028;19.938;2023-04-08T07:46:41;6.30;;;5.18;;
21754;SDS011;11039;50.028;19.938;2023-04-08T07:49:09;5.35;;;4.78;;
21754;SDS011;11039;50.028;19.938;2023-04-08T07:51:35;6.22;;;4.95;;
21754;SDS011;11039;50.028;19.938;2023-04-08T07:54:02;5.47;;;4.90;;
21754;SDS011;11039;50.028;19.938;2023-04-08T07:56:28;5.90;;;4.90;;
21754;SDS011;11039;50.028;19.938;2023-04-08T07:58:54;5.97;;;4.70;;
21754;SDS011;11039;50.028;19.938;2023-04-08T08:01:21;5.60;;;4.90;;
21754;SDS011;11039;50.028;19.938;2023-04-08T08:03:47;5.65;;;5.05;;
21754;SDS011;11039;50.028;19.938;2023-04-08T08:06:14;6.55;;;4.70;;
21754;SDS011;11039;50.028;19.938;2023-04-08T08:08:40;7.10;;;4.82;;
21754;SDS011;11039;50.028;19.938;2023-04-08T08:11:06;5.28;;;4.78;;
21754;SDS011;11039;50.028;19.938;2023-04-08T08:13:32;10.48;;;4.90;;
21754;SDS011;11039;50.028;19.938;2023-04-08T08:15:58;7.78;;;4.95;;
21754;SDS011;11039;50.028;19.938;2023-04-08T08:18:24;7.05;;;5.10;;
21754;SDS011;11039;50.028;19.938;2023-04-08T08:20:51;5.53;;;4.25;;
21754;SDS011;11039;50.028;19.938;2023-04-08T08:23:17;52.50;;;14.23;;
21754;SDS011;11039;50.028;19.938;2023-04-08T08:25:43;16.85;;;7.03;;
21754;SDS011;11039;50.028;19.938;2023-04-08T08:28:09;10.82;;;5.78;;
21754;SDS011;11039;50.028;19.938;2023-04-08T08:30:35;10.00;;;5.97;;
21754;SDS011;11039;50.028;19.938;2023-04-08T08:33:02;13.48;;;6.35;;
21754;SDS011;11039;50.028;19.938;2023-04-08T08:35:28;10.05;;;5.47;;
21754;SDS011;11039;50.028;19.938;2023-04-08T08:37:54;11.07;;;5.70;;
21754;SDS011;11039;50.028;19.938;2023-04-08T08:40:20;14.32;;;6.53;;
21754;SDS011;11039;50.028;19.938;2023-04-08T08:42:50;16.00;;;6.70;;
21754;SDS011;11039;50.028;19.938;2023-04-08T08:45:17;12.90;;;5.63;;
21754;SDS011;11039;50.028;19.938;2023-04-08T08:47:44;10.48;;;5.90;;
21754;SDS011;11039;50.028;19.938;2023-04-08T08:50:10;12.10;;;5.45;;
21754;SDS011;11039;50.028;19.938;2023-04-08T08:52:36;8.95;;;5.72;;
21754;SDS011;11039;50.028;19.938;2023-04-08T08:55:02;10.75;;;5.82;;
21754;SDS011;11039;50.028;19.938;2023-04-08T08:57:28;11.00;;;5.78;;
21754;SDS011;11039;50.028;19.938;2023-04-08T08:59:55;10.20;;;5.63;;
21754;SDS011;11039;50.028;19.938;2023-04-08T09:02:28;12.38;;;5.57;;
21754;SDS011;11039;50.028;19.938;2023-04-08T09:04:59;12.65;;;5.78;;
21754;SDS011;11039;50.028;19.938;2023-04-08T09:07:25;10.57;;;5.50;;
21754;SDS011;11039;50.028;19.938;2023-04-08T09:09:52;12.07;;;5.63;;
21754;SDS011;11039;50.028;19.938;2023-04-08T09:12:18;12.57;;;5.68;;
21754;SDS011;11039;50.028;19.938;2023-04-08T09:14:45;9.75;;;5.75;;
21754;SDS011;11039;50.028;19.938;2023-04-08T09:17:11;10.27;;;5.30;;
21754;SDS011;11039;50.028;19.938;2023-04-08T09:19:37;9.77;;;5.55;;
21754;SDS011;11039;50.028;19.938;2023-04-08T09:22:04;9.65;;;5.25;;
21754;SDS011;11039;50.028;19.938;2023-04-08T09:24:31;11.75;;;5.50;;
21754;SDS011;11039;50.028;19.938;2023-04-08T09:26:57;16.15;;;11.13;;
21754;SDS011;11039;50.028;19.938;2023-04-08T09:29:24;14.88;;;12.13;;
21754;SDS011;11039;50.028;19.938;2023-04-08T09:31:55;22.20;;;12.50;;
21754;SDS011;11039;50.028;19.938;2023-04-08T09:34:21;18.77;;;12.80;;
21754;SDS011;11039;50.028;19.938;2023-04-08T09:36:47;19.35;;;15.13;;
21754;SDS011;11039;50.028;19.938;2023-04-08T09:39:14;21.13;;;15.23;;
21754;SDS011;11039;50.028;19.938;2023-04-08T09:41:40;23.60;;;14.80;;
21754;SDS011;11039;50.028;19.938;2023-04-08T09:44:08;23.45;;;15.55;;
21754;SDS011;11039;50.028;19.938;2023-04-08T09:49:17;25.60;;;18.13;;
21754;SDS011;11039;50.028;19.938;2023-04-08T09:51:49;27.60;;;18.95;;
21754;SDS011;11039;50.028;19.938;2023-04-08T09:54:17;27.63;;;18.15;;
21754;SDS011;11039;50.028;19.938;2023-04-08T09:56:48;24.38;;;17.80;;
21754;SDS011;11039;50.028;19.938;2023-04-08T09:59:16;21.83;;;16.65;;
21754;SDS011;11039;50.028;19.938;2023-04-08T10:01:47;24.33;;;17.50;;
21754;SDS011;11039;50.028;19.938;2023-04-08T10:04:15;23.25;;;16.25;;
21754;SDS011;11039;50.028;19.938;2023-04-08T10:06:43;20.55;;;15.88;;
21754;SDS011;11039;50.028;19.938;2023-04-08T10:09:10;23.45;;;16.65;;
21754;SDS011;11039;50.028;19.938;2023-04-08T10:11:36;20.60;;;15.88;;
21754;SDS011;11039;50.028;19.938;2023-04-08T10:14:02;19.30;;;15.23;;
21754;SDS011;11039;50.028;19.938;2023-04-08T10:16:29;19.85;;;15.82;;
21754;SDS011;11039;50.028;19.938;2023-04-08T10:18:55;19.63;;;13.73;;
21754;SDS011;11039;50.028;19.938;2023-04-08T10:21:38;17.45;;;13.68;;
21754;SDS011;11039;50.028;19.938;2023-04-08T10:24:07;19.10;;;13.05;;
21754;SDS011;11039;50.028;19.938;2023-04-08T10:31:44;17.35;;;12.90;;
21754;SDS011;11039;50.028;19.938;2023-04-08T10:34:14;16.73;;;12.02;;
21754;SDS011;11039;50.028;19.938;2023-04-08T10:36:41;16.25;;;12.57;;
21754;SDS011;11039;50.028;19.938;2023-04-08T10:39:08;18.10;;;12.88;;
21754;SDS011;11039;50.028;19.938;2023-04-08T10:41:34;15.80;;;12.88;;
21754;SDS011;11039;50.028;19.938;2023-04-08T10:44:03;19.08;;;13.30;;
21754;SDS011;11039;50.028;19.938;2023-04-08T10:46:36;18.35;;;13.13;;
21754;SDS011;11039;50.028;19.938;2023-04-08T10:49:02;19.33;;;12.73;;
21754;SDS011;11039;50.028;19.938;2023-04-08T10:51:31;17.08;;;12.95;;
21754;SDS011;11039;50.028;19.938;2023-04-08T10:54:08;15.95;;;13.43;;
21754;SDS011;11039;50.028;19.938;2023-04-08T10:56:35;15.98;;;13.40;;
21754;SDS011;11039;50.028;19.938;2023-04-08T10:59:01;17.88;;;13.98;;
21754;SDS011;11039;50.028;19.938;2023-04-08T11:01:36;20.25;;;14.18;;
21754;SDS011;11039;50.028;19.938;2023-04-08T11:04:10;19.17;;;14.80;;
21754;SDS011;11039;50.028;19.938;2023-04-08T11:06:37;19.55;;;15.48;;
21754;SDS011;11039;50.028;19.938;2023-04-08T11:09:03;15.90;;;13.43;;
21754;SDS011;11039;50.028;19.938;2023-04-08T11:11:29;19.95;;;15.30;;
21754;SDS011;11039;50.028;19.938;2023-04-08T11:13:56;18.15;;;14.27;;
21754;SDS011;11039;50.028;19.938;2023-04-08T11:16:22;17.42;;;14.88;;
21754;SDS011;11039;50.028;19.938;2023-04-08T11:18:50;16.80;;;14.32;;
21754;SDS011;11039;50.028;19.938;2023-04-08T11:21:16;17.80;;;14.50;;
21754;SDS011;11039;50.028;19.938;2023-04-08T11:23:42;18.20;;;14.27;;
21754;SDS011;11039;50.028;19.938;2023-04-08T11:26:08;18.55;;;14.35;;
21754;SDS011;11039;50.028;19.938;2023-04-08T11:28:35;18.15;;;13.65;;
21754;SDS011;11039;50.028;19.938;2023-04-08T11:31:01;16.45;;;13.95;;
21754;SDS011;11039;50.028;19.938;2023-04-08T11:33:31;18.63;;;14.73;;
21754;SDS011;11039;50.028;19.938;2023-04-08T11:35:59;17.48;;;13.45;;
21754;SDS011;11039;50.028;19.938;2023-04-08T11:38:26;18.50;;;15.07;;
21754;SDS011;11039;50.028;19.938;2023-04-08T11:40:52;17.60;;;14.40;;
21754;SDS011;11039;50.028;19.938;2023-04-08T11:43:19;19.30;;;14.80;;
21754;SDS011;11039;50.028;19.938;2023-04-08T11:45:46;17.58;;;15.00;;
21754;SDS011;11039;50.028;19.938;2023-04-08T11:48:13;17.70;;;14.40;;
21754;SDS011;11039;50.028;19.938;2023-04-08T11:50:41;18.60;;;13.77;;
21754;SDS011;11039;50.028;19.938;2023-04-08T11:53:20;19.90;;;15.27;;
21754;SDS011;11039;50.028;19.938;2023-04-08T11:55:47;19.02;;;14.60;;
21754;SDS011;11039;50.028;19.938;2023-04-08T11:58:13;20.20;;;15.13;;
21754;SDS011;11039;50.028;19.938;2023-04-08T12:00:39;20.17;;;15.07;;
21754;SDS011;11039;50.028;19.938;2023-04-08T12:03:06;20.63;;;15.82;;
21754;SDS011;11039;50.028;19.938;2023-04-08T12:05:33;18.85;;;14.23;;
21754;SDS011;11039;50.028;19.938;2023-04-08T12:07:59;18.85;;;15.57;;
21754;SDS011;11039;50.028;19.938;2023-04-08T12:10:25;20.08;;;14.77;;
21754;SDS011;11039;50.028;19.938;2023-04-08T12:12:51;21.25;;;15.27;;
21754;SDS011;11039;50.028;19.938;2023-04-08T12:15:18;22.77;;;15.52;;
21754;SDS011;11039;50.028;19.938;2023-04-08T12:17:44;18.48;;;14.68;;
21754;SDS011;11039;50.028;19.938;2023-04-08T12:20:10;19.10;;;15.38;;
21754;SDS011;11039;50.028;19.938;2023-04-08T12:22:37;19.65;;;15.07;;
21754;SDS011;11039;50.028;19.938;2023-04-08T12:25:03;18.08;;;14.95;;
21754;SDS011;11039;50.028;19.938;2023-04-08T12:27:30;16.98;;;14.05;;
21754;SDS011;11039;50.028;19.938;2023-04-08T12:30:00;19.00;;;14.45;;
21754;SDS011;11039;50.028;19.938;2023-04-08T12:32:26;18.95;;;13.75;;
21754;SDS011;11039;50.028;19.938;2023-04-08T12:34:52;18.73;;;13.18;;
21754;SDS011;11039;50.028;19.938;2023-04-08T12:37:18;14.95;;;12.13;;
21754;SDS011;11039;50.028;19.938;2023-04-08T12:39:45;17.15;;;13.32;;
21754;SDS011;11039;50.028;19.938;2023-04-08T12:42:11;17.13;;;13.45;;
21754;SDS011;11039;50.028;19.938;2023-04-08T12:44:38;15.00;;;13.20;;
21754;SDS011;11039;50.028;19.938;2023-04-08T12:47:04;16.00;;;12.70;;
21754;SDS011;11039;50.028;19.938;2023-04-08T12:49:30;16.17;;;12.40;;
21754;SDS011;11039;50.028;19.938;2023-04-08T12:51:56;18.20;;;13.48;;
21754;SDS011;11039;50.028;19.938;2023-04-08T12:54:22;18.45;;;12.55;;
21754;SDS011;11039;50.028;19.938;2023-04-08T12:56:48;17.23;;;12.27;;
21754;SDS011;11039;50.028;19.938;2023-04-08T12:59:14;15.52;;;12.40;;
21754;SDS011;11039;50.028;19.938;2023-04-08T13:01:40;16.08;;;12.45;;
21754;SDS011;11039;50.028;19.938;2023-04-08T13:04:06;16.65;;;12.45;;
21754;SDS011;11039;50.028;19.938;2023-04-08T13:06:32;15.90;;;12.77;;
21754;SDS011;11039;50.028;19.938;2023-04-08T13:08:58;18.02;;;13.15;;
21754;SDS011;11039;50.028;19.938;2023-04-08T13:11:24;16.00;;;12.55;;
21754;SDS011;11039;50.028;19.938;2023-04-08T13:13:51;17.92;;;13.55;;
21754;SDS011;11039;50.028;19.938;2023-04-08T13:16:17;20.27;;;13.77;;
21754;SDS011;11039;50.028;19.938;2023-04-08T13:18:43;17.63;;;13.60;;
21754;SDS011;11039;50.028;19.938;2023-04-08T13:21:09;19.98;;;14.25;;
21754;SDS011;11039;50.028;19.938;2023-04-08T13:23:36;18.48;;;13.25;;
21754;SDS011;11039;50.028;19.938;2023-04-08T13:26:02;18.75;;;14.25;;
21754;SDS011;11039;50.028;19.938;2023-04-08T13:28:28;18.50;;;12.82;;
21754;SDS011;11039;50.028;19.938;2023-04-08T13:30:54;19.23;;;13.13;;
21754;SDS011;11039;50.028;19.938;2023-04-08T13:33:20;21.55;;;13.85;;
21754;SDS011;11039;50.028;19.938;2023-04-08T13:35:46;20.33;;;13.77;;
21754;SDS011;11039;50.028;19.938;2023-04-08T13:38:12;21.75;;;14.02;;
21754;SDS011;11039;50.028;19.938;2023-04-08T13:40:38;17.80;;;12.98;;
21754;SDS011;11039;50.028;19.938;2023-04-08T13:43:05;16.67;;;13.25;;
21754;SDS011;11039;50.028;19.938;2023-04-08T13:45:31;17.80;;;13.40;;
21754;SDS011;11039;50.028;19.938;2023-04-08T13:47:57;18.42;;;13.68;;
21754;SDS011;11039;50.028;19.938;2023-04-08T13:50:23;20.60;;;14.50;;
21754;SDS011;11039;50.028;19.938;2023-04-08T13:52:50;18.20;;;13.73;;
21754;SDS011;11039;50.028;19.938;2023-04-08T13:55:16;18.48;;;13.43;;
21754;SDS011;11039;50.028;19.938;2023-04-08T13:57:42;22.00;;;14.02;;
21754;SDS011;11039;50.028;19.938;2023-04-08T14:00:08;19.75;;;13.60;;
21754;SDS011;11039;50.028;19.938;2023-04-08T14:02:34;18.58;;;13.95;;
21754;SDS011;11039;50.028;19.938;2023-04-08T14:05:01;19.08;;;14.48;;
21754;SDS011;11039;50.028;19.938;2023-04-08T14:07:28;17.70;;;13.02;;
21754;SDS011;11039;50.028;19.938;2023-04-08T14:09:54;19.15;;;13.52;;
21754;SDS011;11039;50.028;19.938;2023-04-08T14:12:20;18.13;;;13.07;;
21754;SDS011;11039;50.028;19.938;2023-04-08T14:14:46;19.40;;;13.55;;
21754;SDS011;11039;50.028;19.938;2023-04-08T14:17:12;16.75;;;13.30;;
21754;SDS011;11039;50.028;19.938;2023-04-08T14:19:38;19.40;;;14.07;;
21754;SDS011;11039;50.028;19.938;2023-04-08T14:22:04;17.85;;;13.60;;
21754;SDS011;11039;50.028;19.938;2023-04-08T14:24:30;18.58;;;13.82;;
21754;SDS011;11039;50.028;19.938;2023-04-08T14:26:56;19.15;;;12.93;;
21754;SDS011;11039;50.028;19.938;2023-04-08T14:29:23;10.57;;;7.93;;
21754;SDS011;11039;50.028;19.938;2023-04-08T14:31:49;6.68;;;4.65;;